createdAt,value
2023-02-13T00:00:04.273Z,5.60
2023-02-13T00:03:06.785Z,6.20
2023-02-13T00:06:09.496Z,6.05
2023-02-13T00:09:11.639Z,5.45
2023-02-13T00:12:13.782Z,6.40
2023-02-13T00:15:15.766Z,6.20
2023-02-13T00:18:17.937Z,5.47
2023-02-13T00:21:20.000Z,5.97
2023-02-13T00:24:22.111Z,6.32
2023-02-13T00:27:24.203Z,6.90
2023-02-13T00:30:27.458Z,5.88
2023-02-13T00:33:30.453Z,6.53
2023-02-13T00:36:32.592Z,6.78
2023-02-13T00:39:34.579Z,6.00
2023-02-13T00:42:36.752Z,6.57
2023-02-13T00:45:38.725Z,6.38
2023-02-13T00:48:41.161Z,5.63
2023-02-13T00:51:43.249Z,6.57
2023-02-13T00:54:46.870Z,6.20
2023-02-13T00:57:48.940Z,6.53
2023-02-13T01:00:52.836Z,6.68
2023-02-13T01:03:54.940Z,6.15
2023-02-13T01:06:56.979Z,6.75
2023-02-13T01:09:59.001Z,5.82
2023-02-13T01:13:02.190Z,6.38
2023-02-13T01:16:04.790Z,6.95
2023-02-13T01:19:06.986Z,5.68
2023-02-13T01:22:09.685Z,7.22
2023-02-13T01:25:11.819Z,8.43
2023-02-13T01:28:14.401Z,7.40
2023-02-13T01:31:17.206Z,7.15
2023-02-13T01:34:19.415Z,8.20
2023-02-13T01:37:21.452Z,7.25
2023-02-13T01:40:23.433Z,7.28
2023-02-13T01:43:50.509Z,7.55
2023-02-13T01:46:52.587Z,8.73
2023-02-13T01:50:11.391Z,8.57
2023-02-13T01:53:34.052Z,7.80
2023-02-13T01:56:40.989Z,8.50
2023-02-13T01:59:53.192Z,8.73
2023-02-13T02:03:05.345Z,8.27
2023-02-13T02:06:11.652Z,8.63
2023-02-13T02:09:22.807Z,8.45
2023-02-13T02:12:32.330Z,8.48
2023-02-13T02:15:35.212Z,7.63
2023-02-13T02:18:39.203Z,8.50
2023-02-13T02:22:12.855Z,8.48
2023-02-13T02:25:45.744Z,8.40
2023-02-13T02:29:03.018Z,9.68
2023-02-13T02:32:23.591Z,9.02
2023-02-13T02:35:40.543Z,9.93
2023-02-13T02:39:10.183Z,10.63
2023-02-13T02:42:21.314Z,10.07
2023-02-13T02:45:31.976Z,9.65
2023-02-13T02:49:21.703Z,10.23
2023-02-13T02:52:48.876Z,10.70
2023-02-13T02:56:19.054Z,10.23
2023-02-13T02:59:41.567Z,10.27
2023-02-13T03:03:01.939Z,10.63
2023-02-13T03:06:12.114Z,9.27
2023-02-13T03:09:40.051Z,9.05
2023-02-13T03:13:09.785Z,9.32
2023-02-13T03:20:26.051Z,8.30
2023-02-13T03:23:36.304Z,8.80
2023-02-13T03:27:09.403Z,8.80
2023-02-13T03:30:24.479Z,8.85
2023-02-13T03:33:26.438Z,9.68
2023-02-13T03:37:18.754Z,9.52
2023-02-13T03:41:04.654Z,8.65
2023-02-13T03:44:15.996Z,9.85
2023-02-13T03:47:18.167Z,10.30
2023-02-13T03:50:20.255Z,10.13
2023-02-13T03:53:24.668Z,11.73
2023-02-13T03:56:47.522Z,11.48
2023-02-13T03:59:49.821Z,10.75
2023-02-13T04:03:01.354Z,10.82
2023-02-13T04:06:21.207Z,9.98
2023-02-13T04:09:27.274Z,11.23
2023-02-13T04:12:37.822Z,12.13
2023-02-13T04:16:06.362Z,12.98
2023-02-13T04:19:10.049Z,12.27
2023-02-13T04:22:12.540Z,15.10
2023-02-13T04:25:17.648Z,15.88
2023-02-13T04:28:19.887Z,14.30
2023-02-13T04:31:22.765Z,14.65
2023-02-13T04:34:24.920Z,14.13
2023-02-13T04:37:27.057Z,13.93
2023-02-13T04:40:29.094Z,12.20
2023-02-13T04:43:31.113Z,13.60
2023-02-13T04:46:33.222Z,12.65
2023-02-13T04:49:35.255Z,10.75
2023-02-13T04:52:37.652Z,12.07
2023-02-13T04:55:39.645Z,12.45
2023-02-13T04:58:42.169Z,11.38
2023-02-13T05:01:44.304Z,11.70
2023-02-13T05:04:46.463Z,12.73
2023-02-13T05:07:48.666Z,13.32
2023-02-13T05:10:50.746Z,12.98
2023-02-13T05:13:52.698Z,11.52
2023-02-13T05:16:54.827Z,12.85
2023-02-13T05:19:56.925Z,12.77
2023-02-13T05:23:18.139Z,13.63
2023-02-13T05:26:20.296Z,13.27
2023-02-13T05:29:25.433Z,12.52
2023-02-13T05:32:27.491Z,6.63
2023-02-13T05:35:29.821Z,10.05
2023-02-13T05:38:31.835Z,11.20
2023-02-13T05:41:34.281Z,9.73
2023-02-13T05:44:36.273Z,10.45
2023-02-13T05:47:38.275Z,9.18
2023-02-13T05:50:40.397Z,11.77
2023-02-13T05:53:42.398Z,11.90
2023-02-13T05:56:44.641Z,11.93
2023-02-13T05:59:46.821Z,11.95
2023-02-13T06:02:59.031Z,11.80
2023-02-13T06:06:01.148Z,7.53
2023-02-13T06:09:03.605Z,12.20
2023-02-13T06:12:05.994Z,12.93
2023-02-13T06:15:08.293Z,12.23
2023-02-13T06:18:10.982Z,12.20
2023-02-13T06:21:13.055Z,12.27
2023-02-13T06:24:15.175Z,13.15
2023-02-13T06:27:17.157Z,13.85
2023-02-13T06:30:20.076Z,13.05
2023-02-13T06:33:21.983Z,14.38
2023-02-13T06:36:23.938Z,12.57
2023-02-13T06:39:25.920Z,13.50
2023-02-13T06:42:28.051Z,14.15
2023-02-13T06:45:30.053Z,13.20
2023-02-13T06:48:32.273Z,14.40
2023-02-13T06:51:34.428Z,13.02
2023-02-13T06:54:46.874Z,13.25
2023-02-13T06:57:49.698Z,12.65
2023-02-13T07:00:52.546Z,11.90
2023-02-13T07:03:54.726Z,11.75
2023-02-13T07:06:57.496Z,11.07
2023-02-13T07:10:00.695Z,10.82
2023-02-13T07:13:06.096Z,12.85
2023-02-13T07:16:08.422Z,15.35
2023-02-13T07:19:11.840Z,11.73
2023-02-13T07:22:13.882Z,12.50
2023-02-13T07:25:16.003Z,11.82
2023-02-13T07:28:18.048Z,12.55
2023-02-13T07:31:20.230Z,12.85
2023-02-13T07:34:23.633Z,12.52
2023-02-13T07:37:28.646Z,13.05
2023-02-13T07:40:31.229Z,12.40
2023-02-13T07:43:33.780Z,12.00
2023-02-13T07:46:37.556Z,12.95
2023-02-13T07:49:39.754Z,12.55
2023-02-13T07:52:41.745Z,12.02
2023-02-13T07:55:44.137Z,10.18
2023-02-13T07:58:46.313Z,11.35
2023-02-13T08:01:49.550Z,10.63
2023-02-13T08:04:51.768Z,10.73
2023-02-13T08:07:54.026Z,9.57
2023-02-13T08:11:15.285Z,9.07
2023-02-13T08:14:17.515Z,9.05
2023-02-13T08:17:19.506Z,8.27
2023-02-13T08:20:21.897Z,8.48
2023-02-13T08:23:23.988Z,7.68
2023-02-13T08:26:26.121Z,9.23
2023-02-13T08:29:28.127Z,8.65
2023-02-13T08:32:30.308Z,8.82
2023-02-13T08:35:32.453Z,8.90
2023-02-13T08:38:34.718Z,9.02
2023-02-13T08:41:36.822Z,9.63
2023-02-13T08:44:41.137Z,9.25
2023-02-13T08:47:43.230Z,10.05
2023-02-13T08:50:45.209Z,9.57
2023-02-13T08:53:47.658Z,9.57
2023-02-13T08:56:49.669Z,9.27
2023-02-13T08:59:51.588Z,10.05
2023-02-13T09:02:53.643Z,9.00
2023-02-13T09:05:59.693Z,10.02
2023-02-13T09:09:02.109Z,8.95
2023-02-13T09:12:04.271Z,9.63
2023-02-13T09:15:06.434Z,8.38
2023-02-13T09:18:08.585Z,10.45
2023-02-13T09:21:12.797Z,9.48
2023-02-13T09:24:14.886Z,9.80
2023-02-13T09:27:16.890Z,9.25
2023-02-13T09:30:23.963Z,9.98
2023-02-13T09:33:27.194Z,8.85
2023-02-13T09:36:29.208Z,8.95
2023-02-13T09:39:31.457Z,10.10
2023-02-13T09:42:37.195Z,7.82
2023-02-13T09:45:39.800Z,10.25
2023-02-13T09:48:45.590Z,9.90
2023-02-13T09:51:56.209Z,9.85
2023-02-13T09:54:58.357Z,10.52
2023-02-13T09:58:24.176Z,9.15
2023-02-13T10:01:33.070Z,8.70
2023-02-13T10:04:57.077Z,8.95
2023-02-13T10:08:20.688Z,6.13
2023-02-13T10:11:28.436Z,8.73
2023-02-13T10:14:42.646Z,7.97
2023-02-13T10:17:55.201Z,8.18
2023-02-13T10:21:02.469Z,9.57
2023-02-13T10:24:14.850Z,7.78
2023-02-13T10:27:25.284Z,8.98
2023-02-13T10:30:39.511Z,10.07
2023-02-13T10:34:00.828Z,8.40
2023-02-13T10:37:04.355Z,9.38
2023-02-13T10:40:13.681Z,8.15
2023-02-13T10:43:21.048Z,8.25
2023-02-13T10:46:36.852Z,9.18
2023-02-13T10:49:47.704Z,8.18
2023-02-13T10:53:13.085Z,8.95
2023-02-13T10:56:20.808Z,7.78
2023-02-13T10:59:31.723Z,7.73
2023-02-13T11:02:34.970Z,7.65
2023-02-13T11:05:39.689Z,6.75
2023-02-13T11:08:46.013Z,8.07
2023-02-13T11:11:48.118Z,7.82
2023-02-13T11:14:58.900Z,7.45
2023-02-13T11:18:12.568Z,7.50
2023-02-13T11:21:22.502Z,7.35
2023-02-13T11:24:26.819Z,7.28
2023-02-13T11:27:33.753Z,6.53
2023-02-13T11:30:38.561Z,7.18
2023-02-13T11:33:40.851Z,6.90
2023-02-13T11:36:43.042Z,8.43
2023-02-13T11:39:50.145Z,7.35
2023-02-13T11:42:53.074Z,7.57
2023-02-13T11:46:14.666Z,7.20
2023-02-13T11:49:22.158Z,6.88
2023-02-13T11:52:28.217Z,6.82
2023-02-13T11:55:36.513Z,7.35
2023-02-13T11:58:39.677Z,7.63
2023-02-13T12:01:43.072Z,7.13
2023-02-13T12:04:46.288Z,4.82
2023-02-13T12:07:48.782Z,7.20
2023-02-13T12:10:51.104Z,7.63
2023-02-13T12:13:53.253Z,7.72
2023-02-13T12:17:00.975Z,7.25
2023-02-13T12:20:04.215Z,7.40
2023-02-13T12:23:20.521Z,6.40
2023-02-13T12:26:44.158Z,6.50
2023-02-13T12:29:59.411Z,7.43
2023-02-13T12:33:03.332Z,6.10
2023-02-13T12:36:16.675Z,5.70
2023-02-13T12:39:42.700Z,6.28
2023-02-13T12:42:47.585Z,7.50
2023-02-13T12:45:52.412Z,6.72
2023-02-13T12:49:13.187Z,5.97
2023-02-13T12:52:15.367Z,6.80
2023-02-13T12:55:54.305Z,6.78
2023-02-13T12:59:05.123Z,7.10
2023-02-13T13:02:34.769Z,6.45
2023-02-13T13:09:05.750Z,7.25
2023-02-13T13:12:23.064Z,6.78
2023-02-13T13:15:50.534Z,8.57
2023-02-13T13:19:02.350Z,6.65
2023-02-13T13:22:19.587Z,7.03
2023-02-13T13:25:29.769Z,7.88
2023-02-13T13:28:39.512Z,7.07
2023-02-13T13:31:53.507Z,8.07
2023-02-13T13:34:57.000Z,9.40
2023-02-13T13:38:06.760Z,8.38
2023-02-13T13:41:30.882Z,8.50
2023-02-13T13:44:38.671Z,9.23
2023-02-13T13:47:56.216Z,8.25
2023-02-13T13:50:59.466Z,7.50
2023-02-13T13:54:08.251Z,8.02
2023-02-13T13:57:12.456Z,9.13
2023-02-13T14:00:16.484Z,8.25
2023-02-13T14:03:24.989Z,10.38
2023-02-13T14:13:10.394Z,7.50
2023-02-13T14:16:12.713Z,8.45
2023-02-13T14:19:39.164Z,9.63
2023-02-13T14:22:44.861Z,10.23
2023-02-13T14:25:47.789Z,10.00
2023-02-13T14:28:50.432Z,12.85
2023-02-13T14:32:01.899Z,9.77
2023-02-13T14:35:17.158Z,10.45
2023-02-13T14:38:25.310Z,9.98
2023-02-13T14:41:46.336Z,10.13
2023-02-13T14:44:53.605Z,9.38
2023-02-13T14:47:57.725Z,8.73
2023-02-13T14:51:05.753Z,10.23
2023-02-13T14:54:32.419Z,9.32
2023-02-13T14:57:44.260Z,9.48
2023-02-13T15:00:53.719Z,9.30
2023-02-13T15:04:12.876Z,10.55
2023-02-13T15:10:49.692Z,10.23
2023-02-13T15:13:51.682Z,10.05
2023-02-13T15:17:18.403Z,10.90
2023-02-13T15:20:26.562Z,10.90
2023-02-13T15:23:34.873Z,12.07
2023-02-13T15:26:37.144Z,13.75
2023-02-13T15:29:54.466Z,11.95
2023-02-13T15:33:21.486Z,11.13
2023-02-13T15:36:26.468Z,12.15
2023-02-13T15:39:31.359Z,11.48
2023-02-13T15:42:33.537Z,11.23
2023-02-13T15:45:35.605Z,12.48
2023-02-13T15:48:38.146Z,11.38
2023-02-13T15:51:40.272Z,12.48
2023-02-13T15:54:50.003Z,11.27
2023-02-13T15:57:55.146Z,10.82
2023-02-13T16:01:01.651Z,12.27
2023-02-13T16:04:07.655Z,11.75
2023-02-13T16:07:13.251Z,12.93
2023-02-13T16:10:31.425Z,13.07
2023-02-13T16:13:33.626Z,11.93
2023-02-13T16:16:53.318Z,11.93
2023-02-13T16:20:00.152Z,12.85
2023-02-13T16:23:06.594Z,12.52
2023-02-13T16:26:15.646Z,12.38
2023-02-13T16:29:23.879Z,14.15
2023-02-13T16:32:32.218Z,13.15
2023-02-13T16:35:40.873Z,13.68
2023-02-13T16:38:47.796Z,14.23
2023-02-13T16:41:50.816Z,13.57
2023-02-13T16:45:23.065Z,13.80
2023-02-13T16:48:25.372Z,14.00
2023-02-13T16:51:30.473Z,11.40
2023-02-13T16:54:44.382Z,10.07
2023-02-13T16:57:46.647Z,14.18
2023-02-13T17:00:51.438Z,12.55
2023-02-13T17:03:54.354Z,11.93
2023-02-13T17:06:56.503Z,11.18
2023-02-13T17:10:05.489Z,10.85
2023-02-13T17:13:13.131Z,9.23
2023-02-13T17:16:15.267Z,9.30
2023-02-13T17:19:17.292Z,8.70
2023-02-13T17:22:30.856Z,11.27
2023-02-13T17:25:35.967Z,9.63
2023-02-13T17:28:38.156Z,7.60
2023-02-13T17:31:41.817Z,7.47
2023-02-13T17:34:46.630Z,7.68
2023-02-13T17:37:48.699Z,7.40
2023-02-13T17:40:50.881Z,7.57
2023-02-13T17:43:52.984Z,7.40
2023-02-13T17:46:55.299Z,12.05
2023-02-13T17:50:08.528Z,11.02
2023-02-13T17:53:32.913Z,12.85
2023-02-13T17:56:35.055Z,11.85
2023-02-13T17:59:37.788Z,9.63
2023-02-13T18:02:39.897Z,11.80
2023-02-13T18:05:42.114Z,9.57
2023-02-13T18:08:44.092Z,10.02
2023-02-13T18:12:04.529Z,9.90
2023-02-13T18:15:09.827Z,9.02
2023-02-13T18:18:16.129Z,9.35
2023-02-13T18:21:21.724Z,8.50
2023-02-13T18:24:28.732Z,8.00
2023-02-13T18:27:30.992Z,7.55
2023-02-13T18:30:33.197Z,9.57
2023-02-13T18:33:36.212Z,10.23
2023-02-13T18:36:38.710Z,9.80
2023-02-13T18:39:40.740Z,8.38
2023-02-13T18:42:42.775Z,6.68
2023-02-13T18:45:46.083Z,6.72
2023-02-13T18:48:48.422Z,4.72
2023-02-13T18:51:51.381Z,4.72
2023-02-13T18:54:54.548Z,4.82
2023-02-13T18:57:57.542Z,5.53
2023-02-13T19:01:11.497Z,4.70
2023-02-13T19:04:13.626Z,5.35
2023-02-13T19:07:17.033Z,5.93
2023-02-13T19:10:19.202Z,5.53
2023-02-13T19:13:22.813Z,5.65
2023-02-13T19:16:25.222Z,7.53
2023-02-13T19:19:31.453Z,7.40
2023-02-13T19:22:34.048Z,8.70
2023-02-13T19:25:38.222Z,10.15
2023-02-13T19:28:41.084Z,6.88
2023-02-13T19:31:43.315Z,7.65
2023-02-13T19:34:48.610Z,7.60
2023-02-13T19:37:50.572Z,13.68
2023-02-13T19:40:54.385Z,12.60
2023-02-13T19:43:56.805Z,12.43
2023-02-13T19:46:58.924Z,12.13
2023-02-13T19:50:01.037Z,12.75
2023-02-13T19:53:04.441Z,12.85
2023-02-13T19:56:09.073Z,10.52
2023-02-13T19:59:13.589Z,8.75
2023-02-13T20:02:17.343Z,8.68
2023-02-13T20:05:19.740Z,7.75
2023-02-13T20:08:21.757Z,9.73
2023-02-13T20:11:24.029Z,10.95
2023-02-13T20:14:27.207Z,9.43
2023-02-13T20:17:29.230Z,9.27
2023-02-13T20:20:31.211Z,9.00
2023-02-13T20:23:33.385Z,9.40
2023-02-13T20:26:40.674Z,10.05
2023-02-13T20:29:58.870Z,11.20
2023-02-13T20:33:09.099Z,11.20
2023-02-13T20:36:14.234Z,10.40
2023-02-13T20:39:17.265Z,11.38
2023-02-13T20:42:23.886Z,12.20
2023-02-13T20:45:28.849Z,10.95
2023-02-13T20:48:38.939Z,9.73
2023-02-13T20:51:42.914Z,10.80
2023-02-13T20:54:47.227Z,11.38
2023-02-13T20:57:54.475Z,9.55
2023-02-13T21:01:03.205Z,10.63
2023-02-13T21:04:11.495Z,10.20
2023-02-13T21:07:15.065Z,10.55
2023-02-13T21:10:18.161Z,11.93
2023-02-13T21:13:20.214Z,11.93
2023-02-13T21:16:25.363Z,11.20
2023-02-13T21:19:27.455Z,11.60
2023-02-13T21:22:31.324Z,11.48
2023-02-13T21:25:33.632Z,11.77
2023-02-13T21:28:37.043Z,11.52
2023-02-13T21:31:49.199Z,10.15
2023-02-13T21:34:51.475Z,9.65
2023-02-13T21:37:55.200Z,10.60
2023-02-13T21:41:13.784Z,9.45
2023-02-13T21:44:16.932Z,8.65
2023-02-13T21:47:19.117Z,9.60
2023-02-13T21:50:22.394Z,9.82
2023-02-13T21:53:24.464Z,8.80
2023-02-13T21:56:29.765Z,10.23
2023-02-13T21:59:32.820Z,8.52
2023-02-13T22:02:34.954Z,9.70
2023-02-13T22:05:37.065Z,9.65
2023-02-13T22:08:39.494Z,9.23
2023-02-13T22:11:44.729Z,10.07
2023-02-13T22:14:46.704Z,10.15
2023-02-13T22:17:48.767Z,8.80
2023-02-13T22:20:51.428Z,9.20
2023-02-13T22:23:53.473Z,10.07
2023-02-13T22:26:55.834Z,10.00
2023-02-13T22:29:57.866Z,9.27
2023-02-13T22:33:00.229Z,9.10
2023-02-13T22:36:02.400Z,8.35
2023-02-13T22:39:05.368Z,9.95
2023-02-13T22:42:07.503Z,8.20
2023-02-13T22:45:09.822Z,8.13
2023-02-13T22:48:11.848Z,10.02
2023-02-13T22:51:17.656Z,9.27
2023-02-13T22:54:19.726Z,8.25
2023-02-13T22:57:21.918Z,9.18
2023-02-13T23:00:24.303Z,9.15
2023-02-13T23:03:26.368Z,8.60
2023-02-13T23:06:29.039Z,9.73
2023-02-13T23:09:31.080Z,8.52
2023-02-13T23:12:40.707Z,8.30
2023-02-13T23:15:42.976Z,9.00
2023-02-13T23:18:50.152Z,8.98
2023-02-13T23:21:52.221Z,9.40
2023-02-13T23:24:54.272Z,7.80
2023-02-13T23:27:59.408Z,7.38
2023-02-13T23:31:03.123Z,6.85
2023-02-13T23:34:05.437Z,7.95
2023-02-13T23:37:07.447Z,8.18
2023-02-13T23:40:12.248Z,7.97
2023-02-13T23:43:14.257Z,8.50
2023-02-13T23:46:16.241Z,8.75
2023-02-13T23:49:18.595Z,9.13
2023-02-13T23:52:20.949Z,7.82
2023-02-13T23:55:23.049Z,7.82
2023-02-13T23:58:25.084Z,6.93
